Time;durP1;ratioP1;P1;durP2;ratioP2;P2;SDS_P1;SDS_P2;PMS_P1;PMS_P2;Temp;Humidity;BMP_temperature;BMP_pressure;BME280_temperature;BME280_humidity;BME280_pressure;Samples;Min_cycle;Max_cycle;Signal;HPM_P1;HPM_P2
2023/06/14 00:02:55;;;;;;;6.80;4.67;;;18.70;63.70;;;;;;10223101;28;20313;-70
2023/06/14 00:07:56;;;;;;;5.20;4.43;;;18.60;63.30;;;;;;10226190;28;20714;-71
2023/06/14 00:12:56;;;;;;;7.23;4.70;;;18.50;63.60;;;;;;10219781;28;20231;-71
2023/06/14 00:18:01;;;;;;;6.13;4.60;;;18.40;63.90;;;;;;10223238;28;20235;-71
2023/06/14 00:23:02;;;;;;;7.23;4.87;;;18.30;64.40;;;;;;10232512;28;20290;-70
2023/06/14 00:28:02;;;;;;;5.50;4.47;;;18.30;64.70;;;;;;10229260;28;20637;-71
2023/06/14 00:33:04;;;;;;;7.67;5.10;;;18.30;64.70;;;;;;10219078;28;20238;-70
2023/06/14 00:38:04;;;;;;;7.07;4.60;;;18.20;65.00;;;;;;10230164;28;20234;-70
2023/06/14 00:43:05;;;;;;;6.93;5.20;;;18.10;65.20;;;;;;10226516;28;20239;-71
2023/06/14 00:48:07;;;;;;;9.33;4.77;;;18.00;65.40;;;;;;10224168;28;20238;-71
2023/06/14 00:53:08;;;;;;;6.83;4.63;;;17.90;65.90;;;;;;10224420;28;20722;-71
2023/06/14 00:58:10;;;;;;;7.57;5.23;;;17.90;66.00;;;;;;10228791;28;20329;-71
2023/06/14 01:03:12;;;;;;;7.40;5.30;;;17.70;65.70;;;;;;10215124;28;20232;-71
2023/06/14 01:08:34;;;;;;;6.67;5.33;;;17.80;65.80;;;;;;10223274;28;20231;-71
2023/06/14 01:13:38;;;;;;;7.40;4.90;;;17.70;66.10;;;;;;10244882;28;20226;-71
2023/06/14 01:18:38;;;;;;;8.40;5.03;;;17.70;66.50;;;;;;10226383;28;20224;-72
2023/06/14 01:23:39;;;;;;;5.83;4.87;;;17.60;66.80;;;;;;10227632;28;20231;-70
2023/06/14 01:28:40;;;;;;;6.30;4.73;;;17.50;67.30;;;;;;10218239;28;20227;-72
2023/06/14 01:33:40;;;;;;;7.20;4.70;;;17.50;67.40;;;;;;10226696;28;20603;-71
2023/06/14 01:38:43;;;;;;;6.57;4.37;;;17.40;67.40;;;;;;10222295;28;20698;-71
2023/06/14 01:43:45;;;;;;;7.07;4.83;;;17.40;67.60;;;;;;10218944;28;20709;-72
2023/06/14 01:48:46;;;;;;;7.23;4.73;;;17.40;67.00;;;;;;10218313;28;20223;-71
2023/06/14 01:53:47;;;;;;;7.03;4.27;;;17.40;66.50;;;;;;10219036;28;20223;-72
2023/06/14 01:58:48;;;;;;;6.57;4.97;;;17.40;66.30;;;;;;10218056;28;20230;-72
2023/06/14 02:03:49;;;;;;;7.47;4.70;;;17.40;66.00;;;;;;10215109;28;20597;-73
2023/06/14 02:08:49;;;;;;;7.17;4.67;;;17.40;66.40;;;;;;10213778;28;20227;-71
2023/06/14 02:13:50;;;;;;;9.07;4.63;;;17.40;66.70;;;;;;10224316;28;20239;-71
2023/06/14 02:18:51;;;;;;;7.10;4.30;;;17.30;67.10;;;;;;10229763;28;20207;-71
2023/06/14 02:23:51;;;;;;;6.73;4.67;;;17.30;67.60;;;;;;10229415;28;20223;-72
2023/06/14 02:28:52;;;;;;;5.40;4.90;;;17.20;67.70;;;;;;10216250;28;20332;-70
2023/06/14 02:33:52;;;;;;;5.53;4.43;;;17.10;68.20;;;;;;10228127;28;20269;-71
2023/06/14 02:38:54;;;;;;;7.63;5.20;;;17.00;68.80;;;;;;10229391;28;20248;-70
2023/06/14 02:43:56;;;;;;;8.80;5.37;;;16.90;69.40;;;;;;10229496;28;20234;-71
2023/06/14 02:48:56;;;;;;;5.97;4.80;;;16.80;70.00;;;;;;10227762;28;20755;-71
2023/06/14 02:53:57;;;;;;;10.60;4.87;;;16.80;70.70;;;;;;10232759;28;20314;-71
2023/06/14 02:58:58;;;;;;;11.23;5.00;;;16.70;71.00;;;;;;10228935;28;20640;-70
2023/06/14 03:03:58;;;;;;;10.27;4.80;;;16.70;71.20;;;;;;10225198;28;20231;-71
2023/06/14 03:09:00;;;;;;;10.10;4.80;;;16.70;71.00;;;;;;10227849;28;20238;-71
2023/06/14 03:14:04;;;;;;;8.93;5.40;;;16.60;71.20;;;;;;10221406;28;20228;-71
2023/06/14 03:19:04;;;;;;;5.53;4.93;;;16.60;71.40;;;;;;10224749;28;20219;-71
2023/06/14 03:24:05;;;;;;;6.37;4.30;;;16.50;71.80;;;;;;10234311;28;20631;-72
2023/06/14 03:29:06;;;;;;;9.70;4.70;;;16.50;72.30;;;;;;10223722;29;20977;-71
2023/06/14 03:34:06;;;;;;;10.97;4.37;;;16.30;72.80;;;;;;10231779;28;20223;-72
2023/06/14 03:39:10;;;;;;;6.60;4.57;;;16.20;73.40;;;;;;10226177;28;20709;-71
2023/06/14 03:44:10;;;;;;;7.93;4.80;;;16.20;73.80;;;;;;10232163;28;20288;-71
2023/06/14 03:49:12;;;;;;;6.90;4.83;;;16.20;73.90;;;;;;10217253;28;20241;-71
2023/06/14 03:54:12;;;;;;;6.37;4.50;;;16.20;73.90;;;;;;10232299;28;20259;-70
2023/06/14 03:59:13;;;;;;;7.37;4.10;;;16.20;73.60;;;;;;10225246;28;20227;-71
2023/06/14 04:04:16;;;;;;;5.53;4.40;;;16.30;73.20;;;;;;10231360;28;20230;-71
2023/06/14 04:09:18;;;;;;;7.70;4.50;;;16.40;72.70;;;;;;10231936;28;20242;-70
2023/06/14 04:14:19;;;;;;;15.80;4.70;;;16.40;72.10;;;;;;10224514;28;20231;-71
2023/06/14 04:19:20;;;;;;;6.70;4.33;;;16.60;72.10;;;;;;10223534;28;20719;-72
2023/06/14 04:24:21;;;;;;;9.00;4.00;;;16.70;71.70;;;;;;10231111;28;20229;-71
2023/06/14 04:29:23;;;;;;;7.60;4.30;;;16.80;71.60;;;;;;10231921;28;20242;-71
2023/06/14 04:34:29;;;;;;;10.20;4.60;;;16.80;71.10;;;;;;10217784;28;20228;-71
2023/06/14 04:39:29;;;;;;;8.43;4.30;;;17.10;70.30;;;;;;10229119;28;20231;-72
2023/06/14 04:44:31;;;;;;;7.20;4.10;;;17.40;69.60;;;;;;10226398;28;20239;-71
2023/06/14 04:49:32;;;;;;;8.67;3.90;;;17.30;69.30;;;;;;10228964;28;20568;-70
2023/06/14 04:54:33;;;;;;;10.27;4.43;;;17.40;69.60;;;;;;10222701;28;20325;-70
2023/06/14 04:59:35;;;;;;;11.23;4.17;;;17.50;69.10;;;;;;10225399;28;20232;-71
2023/06/14 05:04:39;;;;;;;9.30;4.00;;;17.70;68.30;;;;;;10220341;28;20743;-71
2023/06/14 05:09:40;;;;;;;5.50;4.20;;;19.40;64.20;;;;;;10219283;28;20721;-71
2023/06/14 05:14:40;;;;;;;13.97;4.50;;;21.10;58.70;;;;;;10223081;28;20215;-71
2023/06/14 05:19:41;;;;;;;7.80;3.90;;;22.50;55.90;;;;;;10223177;28;20251;-71
2023/06/14 05:24:41;;;;;;;7.77;3.93;;;23.40;53.20;;;;;;10227781;28;20227;-70
2023/06/14 05:29:42;;;;;;;4.80;3.60;;;23.70;52.30;;;;;;10218571;28;20318;-72
2023/06/14 05:34:43;;;;;;;6.27;4.03;;;23.90;52.60;;;;;;10226221;28;20220;-71
2023/06/14 05:39:43;;;;;;;6.80;3.80;;;23.80;51.40;;;;;;10215893;28;20227;-72
2023/06/14 05:44:44;;;;;;;8.27;4.00;;;24.20;51.00;;;;;;10217191;28;20244;-71
2023/06/14 05:49:45;;;;;;;7.33;3.90;;;24.40;50.80;;;;;;10215789;28;20230;-72
2023/06/14 05:54:45;;;;;;;6.33;3.90;;;24.70;50.30;;;;;;10226183;28;20228;-70
2023/06/14 05:59:47;;;;;;;4.70;3.70;;;24.80;50.00;;;;;;10224810;28;20365;-72
2023/06/14 06:04:48;;;;;;;6.30;3.97;;;25.40;48.80;;;;;;10221231;28;20892;-72
2023/06/14 06:09:51;;;;;;;8.67;4.50;;;25.50;48.40;;;;;;10231772;28;20235;-72
2023/06/14 06:14:52;;;;;;;5.17;4.20;;;25.60;48.30;;;;;;10218245;28;20265;-71
2023/06/14 06:19:54;;;;;;;7.70;3.80;;;26.30;47.80;;;;;;10218580;28;20231;-72
2023/06/14 06:24:54;;;;;;;4.60;3.93;;;26.50;46.50;;;;;;10224679;28;20235;-70
2023/06/14 06:29:55;;;;;;;7.10;4.10;;;26.50;46.30;;;;;;10218589;28;20227;-71
2023/06/14 06:35:03;;;;;;;7.37;4.20;;;27.00;46.10;;;;;;10221309;28;20340;-71
2023/06/14 06:40:05;;;;;;;6.60;3.80;;;27.20;46.20;;;;;;10220977;28;20236;-71
2023/06/14 06:45:06;;;;;;;11.57;3.93;;;27.50;46.00;;;;;;10219203;28;20328;-71
2023/06/14 06:50:10;;;;;;;8.93;4.20;;;27.50;45.60;;;;;;10221980;28;20218;-71
2023/06/14 06:55:11;;;;;;;4.57;3.60;;;27.50;45.30;;;;;;10227133;28;20199;-71
2023/06/14 07:00:12;;;;;;;5.27;3.53;;;28.10;44.40;;;;;;10218534;28;20675;-71
2023/06/14 07:05:13;;;;;;;7.33;3.90;;;28.30;44.60;;;;;;10218093;28;20830;-71
2023/06/14 07:10:17;;;;;;;12.80;4.30;;;28.40;43.90;;;;;;10220448;28;20192;-71
2023/06/14 07:15:20;;;;;;;11.13;4.30;;;29.10;43.50;;;;;;10224775;28;20290;-73
2023/06/14 07:20:22;;;;;;;7.50;4.00;;;29.50;42.50;;;;;;10218950;28;20212;-72
2023/06/14 07:25:23;;;;;;;8.00;4.43;;;29.20;42.30;;;;;;10227140;28;20187;-71
2023/06/14 07:30:25;;;;;;;9.70;3.83;;;29.30;42.30;;;;;;10231348;28;20194;-71
2023/06/14 07:35:26;;;;;;;5.03;3.80;;;29.60;41.70;;;;;;10231499;28;20273;-71
2023/06/14 07:40:27;;;;;;;9.03;3.83;;;30.10;41.40;;;;;;10219265;28;20687;-72
2023/06/14 07:45:28;;;;;;;10.90;3.70;;;30.40;40.80;;;;;;10231779;28;20231;-72
2023/06/14 07:50:28;;;;;;;4.90;3.83;;;31.30;39.40;;;;;;10219594;28;20588;-73
2023/06/14 07:55:32;;;;;;;5.23;3.87;;;32.20;38.60;;;;;;10218319;28;20307;-73
2023/06/14 08:00:33;;;;;;;10.37;3.57;;;31.30;39.20;;;;;;10223183;28;20227;-73
2023/06/14 08:05:34;;;;;;;5.77;3.87;;;31.10;39.40;;;;;;10225119;28;20227;-73
2023/06/14 08:10:37;;;;;;;7.83;3.67;;;31.50;39.40;;;;;;10219210;28;20242;-71
2023/06/14 08:15:38;;;;;;;7.73;3.70;;;31.60;38.50;;;;;;10225437;28;20301;-72
2023/06/14 08:20:39;;;;;;;7.13;3.30;;;31.60;39.10;;;;;;10222067;28;20238;-72
2023/06/14 08:25:40;;;;;;;7.17;3.20;;;31.40;39.00;;;;;;10225563;28;20257;-72
2023/06/14 08:30:42;;;;;;;4.70;3.57;;;33.10;38.10;;;;;;10231736;28;20224;-72
2023/06/14 08:35:43;;;;;;;5.27;2.80;;;32.70;37.50;;;;;;10234922;28;20256;-72
2023/06/14 08:40:47;;;;;;;5.87;2.60;;;35.00;35.50;;;;;;10219840;28;20273;-72
2023/06/14 08:45:57;;;;;;;6.40;3.00;;;35.30;34.40;;;;;;10218528;28;20231;-71
2023/06/14 08:51:03;;;;;;;6.17;2.60;;;35.00;33.50;;;;;;10228474;28;20620;-73
2023/06/14 08:56:05;;;;;;;5.33;2.90;;;33.50;34.60;;;;;;10217156;28;20311;-72
2023/06/14 09:01:11;;;;;;;5.60;3.03;;;31.70;36.80;;;;;;10223476;28;20301;-71
2023/06/14 09:06:15;;;;;;;5.53;2.60;;;30.40;38.80;;;;;;10229476;28;20318;-71
2023/06/14 09:11:18;;;;;;;2.87;2.13;;;31.50;38.60;;;;;;10222181;28;20302;-71
2023/06/14 09:16:19;;;;;;;5.03;2.13;;;33.90;36.30;;;;;;10222246;28;20258;-71
2023/06/14 09:21:21;;;;;;;5.13;2.10;;;34.20;33.90;;;;;;10226735;28;20257;-73
2023/06/14 09:26:27;;;;;;;3.97;1.97;;;34.30;33.20;;;;;;10221841;28;20227;-71
2023/06/14 09:31:31;;;;;;;3.63;1.83;;;35.00;33.30;;;;;;10214939;28;20235;-72
2023/06/14 09:36:32;;;;;;;2.87;2.13;;;34.70;33.00;;;;;;10219696;28;20262;-71
2023/06/14 09:41:38;;;;;;;4.23;2.10;;;34.60;34.40;;;;;;10228695;28;20243;-72
2023/06/14 09:46:38;;;;;;;4.63;2.07;;;36.10;32.70;;;;;;10225870;28;20270;-72
2023/06/14 09:51:45;;;;;;;3.13;1.90;;;36.30;31.70;;;;;;10217322;28;20242;-72
2023/06/14 09:56:49;;;;;;;3.37;1.90;;;35.30;31.70;;;;;;10218292;28;20319;-72
2023/06/14 10:01:50;;;;;;;3.73;1.83;;;34.10;32.90;;;;;;10218539;28;20312;-72
2023/06/14 10:06:52;;;;;;;3.80;1.93;;;34.80;33.20;;;;;;10227201;28;20694;-71
2023/06/14 10:11:53;;;;;;;4.63;1.70;;;35.40;32.10;;;;;;10221634;28;20228;-71
2023/06/14 10:17:04;;;;;;;3.83;2.03;;;32.90;34.40;;;;;;10220916;28;20256;-71
2023/06/14 10:22:10;;;;;;;3.37;1.80;;;34.60;33.20;;;;;;10213163;28;20378;-71
2023/06/14 10:27:16;;;;;;;5.10;2.20;;;35.20;32.80;;;;;;10220412;28;20228;-72
2023/06/14 10:32:18;;;;;;;7.20;2.20;;;32.20;34.90;;;;;;10220647;28;20226;-71
2023/06/14 10:37:19;;;;;;;3.60;2.10;;;31.90;35.70;;;;;;10216626;28;20239;-71
2023/06/14 10:42:22;;;;;;;7.37;2.20;;;32.10;36.10;;;;;;10226648;28;20602;-71
2023/06/14 10:47:36;;;;;;;2.93;1.73;;;32.70;35.10;;;;;;10218442;28;20235;-71
2023/06/14 10:52:41;;;;;;;4.00;2.07;;;32.70;34.80;;;;;;10225137;28;20257;-71
2023/06/14 10:57:51;;;;;;;3.30;2.00;;;31.60;36.10;;;;;;10235518;28;20223;-71
2023/06/14 11:03:16;;;;;;;3.10;1.73;;;32.40;36.30;;;;;;10226600;28;20228;-72
2023/06/14 11:08:54;;;;;;;5.30;1.80;;;34.00;33.30;;;;;;10226861;28;20227;-71
2023/06/14 11:13:55;;;;;;;2.13;1.63;;;34.20;32.70;;;;;;10224394;28;20590;-72
2023/06/14 11:18:55;;;;;;;2.30;2.10;;;34.00;31.90;;;;;;10238705;28;20222;-72
2023/06/14 11:23:56;;;;;;;2.60;1.83;;;32.90;34.00;;;;;;10235840;28;20231;-71
2023/06/14 11:29:01;;;;;;;2.63;1.90;;;30.50;38.00;;;;;;10233170;28;20237;-72
2023/06/14 11:34:01;;;;;;;4.40;2.07;;;29.40;39.60;;;;;;10222527;28;20769;-72
2023/06/14 11:39:07;;;;;;;3.50;1.93;;;29.00;40.40;;;;;;10225593;28;20220;-70
2023/06/14 11:44:08;;;;;;;3.00;2.40;;;28.90;40.60;;;;;;10231284;28;20232;-71
2023/06/14 11:49:09;;;;;;;3.57;2.27;;;28.90;39.70;;;;;;10218302;28;20299;-72
2023/06/14 11:54:10;;;;;;;3.10;2.17;;;28.10;40.20;;;;;;10217395;28;20247;-71
2023/06/14 11:59:13;;;;;;;3.77;2.23;;;28.00;40.70;;;;;;10216752;28;20219;-71
2023/06/14 12:04:14;;;;;;;3.93;2.53;;;28.10;40.70;;;;;;10225970;28;20250;-71
2023/06/14 12:09:18;;;;;;;4.07;2.37;;;28.60;41.00;;;;;;10232158;28;20216;-73
2023/06/14 12:14:18;;;;;;;3.63;2.37;;;28.50;40.60;;;;;;10224013;28;20360;-72
2023/06/14 12:19:19;;;;;;;4.90;2.30;;;28.10;40.70;;;;;;10217929;28;20232;-72
2023/06/14 12:24:19;;;;;;;2.93;2.40;;;27.90;41.20;;;;;;10225480;28;20228;-71
2023/06/14 12:29:20;;;;;;;5.83;2.60;;;28.00;41.20;;;;;;10223904;28;20220;-71
2023/06/14 12:34:21;;;;;;;5.77;2.70;;;27.10;41.90;;;;;;10224909;28;20232;-71
2023/06/14 12:39:22;;;;;;;5.30;3.07;;;26.60;42.80;;;;;;10225009;28;20220;-70
2023/06/14 12:44:25;;;;;;;5.13;2.67;;;26.50;43.40;;;;;;10217541;28;20793;-71
2023/06/14 12:49:26;;;;;;;7.03;2.97;;;26.60;43.00;;;;;;10223401;28;20223;-71
2023/06/14 12:54:28;;;;;;;3.77;2.57;;;26.50;43.00;;;;;;10224572;28;20219;-71
2023/06/14 12:59:32;;;;;;;2.97;2.53;;;26.70;42.40;;;;;;10235808;28;20227;-71
2023/06/14 13:04:33;;;;;;;2.93;2.60;;;26.70;42.80;;;;;;10223348;28;20691;-71
2023/06/14 13:09:33;;;;;;;5.20;2.57;;;27.10;42.00;;;;;;10218351;28;20227;-72
2023/06/14 13:14:34;;;;;;;4.67;2.50;;;26.90;42.80;;;;;;10236597;28;20286;-71
2023/06/14 13:19:35;;;;;;;4.00;2.50;;;26.40;43.20;;;;;;10255280;28;20281;-71
2023/06/14 13:24:36;;;;;;;2.63;2.40;;;26.50;43.80;;;;;;10215977;28;20227;-72
2023/06/14 13:29:37;;;;;;;3.33;2.50;;;26.40;43.80;;;;;;10222536;28;20222;-72
2023/06/14 13:34:37;;;;;;;4.53;2.60;;;26.20;44.00;;;;;;10215784;28;20223;-72
2023/06/14 13:39:38;;;;;;;3.33;2.53;;;26.10;43.70;;;;;;10225946;28;20231;-70
2023/06/14 13:44:39;;;;;;;4.63;2.57;;;26.20;43.90;;;;;;10223787;28;20350;-71
2023/06/14 13:49:40;;;;;;;4.50;2.50;;;25.90;43.50;;;;;;10225706;28;21130;-72
2023/06/14 13:54:42;;;;;;;5.17;2.47;;;26.20;42.80;;;;;;10217989;28;20229;-70
2023/06/14 13:59:45;;;;;;;4.33;2.30;;;27.00;42.60;;;;;;10218323;28;20315;-72
2023/06/14 14:04:52;;;;;;;3.87;2.47;;;27.00;42.30;;;;;;10223846;28;20981;-71
2023/06/14 14:09:53;;;;;;;3.83;2.70;;;26.40;43.40;;;;;;10218855;28;20223;-71
2023/06/14 14:14:53;;;;;;;4.83;2.50;;;25.80;44.00;;;;;;10226220;28;20223;-72
2023/06/14 14:19:55;;;;;;;5.60;2.70;;;25.30;44.80;;;;;;10235082;28;20223;-71
2023/06/14 14:24:55;;;;;;;4.27;2.50;;;25.40;44.10;;;;;;10236524;28;20362;-71
2023/06/14 14:29:56;;;;;;;4.87;2.50;;;25.40;43.60;;;;;;10223955;28;20231;-71
2023/06/14 14:34:56;;;;;;;3.03;2.43;;;25.90;43.40;;;;;;10225374;28;20603;-71
2023/06/14 14:39:57;;;;;;;6.20;2.47;;;26.70;43.30;;;;;;10228150;28;20234;-71
2023/06/14 14:44:57;;;;;;;3.40;2.07;;;26.90;42.00;;;;;;10222490;28;20228;-72
2023/06/14 14:49:58;;;;;;;3.50;2.27;;;26.70;41.90;;;;;;10225774;28;20565;-71
2023/06/14 14:54:58;;;;;;;5.90;2.53;;;26.20;42.60;;;;;;10228943;28;20220;-70
2023/06/14 14:59:59;;;;;;;4.10;2.20;;;25.70;43.50;;;;;;10224347;28;20264;-71
2023/06/14 15:05:00;;;;;;;3.83;2.33;;;25.20;44.60;;;;;;10221768;28;20321;-71
2023/06/14 15:10:01;;;;;;;4.73;2.27;;;25.10;43.90;;;;;;10216372;28;20234;-72
2023/06/14 15:15:03;;;;;;;7.07;2.33;;;25.20;44.00;;;;;;10231883;28;20229;-71
2023/06/14 15:20:05;;;;;;;3.27;2.43;;;25.50;44.00;;;;;;10236320;28;20285;-70
2023/06/14 15:25:06;;;;;;;5.03;2.60;;;25.60;44.20;;;;;;10256158;28;20671;-72
2023/06/14 15:30:08;;;;;;;3.80;2.37;;;25.50;43.20;;;;;;10226699;28;20184;-71
2023/06/14 15:35:08;;;;;;;2.77;2.30;;;25.60;41.90;;;;;;10232508;28;20597;-71
2023/06/14 15:40:09;;;;;;;4.60;2.20;;;25.90;42.70;;;;;;10231513;28;20222;-71
2023/06/14 15:45:10;;;;;;;5.23;2.27;;;26.40;42.90;;;;;;10220043;28;20203;-71
2023/06/14 15:50:11;;;;;;;5.33;2.10;;;26.60;44.00;;;;;;10232848;28;20191;-73
2023/06/14 15:55:12;;;;;;;3.77;2.13;;;26.10;42.90;;;;;;10226685;28;20721;-71
2023/06/14 16:00:13;;;;;;;3.70;1.73;;;25.80;44.60;;;;;;10225713;28;20682;-71
2023/06/14 16:05:17;;;;;;;4.67;2.47;;;25.40;45.70;;;;;;10225827;28;20609;-71
2023/06/14 16:10:18;;;;;;;3.13;1.90;;;25.00;45.70;;;;;;10225991;28;20190;-70
2023/06/14 16:15:18;;;;;;;3.17;2.07;;;25.00;45.70;;;;;;10224607;28;20191;-72
2023/06/14 16:20:19;;;;;;;2.50;2.30;;;25.10;43.60;;;;;;10239741;28;20613;-70
2023/06/14 16:25:21;;;;;;;2.83;2.27;;;25.30;44.40;;;;;;10224441;28;20191;-71
2023/06/14 16:30:22;;;;;;;3.70;2.40;;;25.30;43.00;;;;;;10217854;28;20639;-71
2023/06/14 16:35:22;;;;;;;2.93;1.90;;;25.40;43.00;;;;;;10224191;28;20195;-70
2023/06/14 16:40:23;;;;;;;4.13;2.30;;;25.70;44.40;;;;;;10215439;28;20220;-71
2023/06/14 16:45:23;;;;;;;4.73;2.20;;;25.80;44.20;;;;;;10223500;28;20204;-70
2023/06/14 16:50:24;;;;;;;3.17;1.90;;;25.60;43.80;;;;;;10223085;28;20640;-71
2023/06/14 16:55:24;;;;;;;5.73;2.20;;;25.40;44.90;;;;;;10230973;28;20277;-70
2023/06/14 17:00:28;;;;;;;4.73;2.70;;;25.30;44.90;;;;;;10222526;28;20238;-71
2023/06/14 17:05:29;;;;;;;4.40;2.80;;;25.00;45.80;;;;;;10218598;28;20259;-71
2023/06/14 17:10:29;;;;;;;2.83;2.40;;;24.70;46.90;;;;;;10224025;28;20241;-71
2023/06/14 17:15:30;;;;;;;3.40;1.80;;;24.60;47.70;;;;;;10220179;28;20211;-70
2023/06/14 17:20:30;;;;;;;2.23;2.00;;;24.50;48.30;;;;;;10227950;28;20593;-70
2023/06/14 17:25:31;;;;;;;3.23;2.30;;;24.50;48.80;;;;;;10221821;28;20243;-71
2023/06/14 17:30:32;;;;;;;7.10;2.40;;;24.60;48.30;;;;;;10223236;28;20230;-71
2023/06/14 17:35:32;;;;;;;5.23;2.50;;;24.50;48.30;;;;;;10219663;28;20552;-71
2023/06/14 17:40:33;;;;;;;3.90;2.00;;;24.40;49.00;;;;;;10227978;28;20238;-72
2023/06/14 17:45:34;;;;;;;2.77;2.37;;;24.30;49.30;;;;;;10221303;28;20254;-71
2023/06/14 17:50:38;;;;;;;3.83;2.00;;;24.20;48.50;;;;;;10235509;28;20710;-72
2023/06/14 17:55:39;;;;;;;2.73;2.10;;;24.30;48.80;;;;;;10217502;28;20226;-70
2023/06/14 18:00:39;;;;;;;2.20;2.00;;;24.50;48.40;;;;;;10220399;28;20231;-71
2023/06/14 18:05:44;;;;;;;3.93;1.97;;;24.50;48.40;;;;;;10216612;28;20310;-71
2023/06/14 18:10:44;;;;;;;4.13;3.10;;;24.40;48.80;;;;;;10226283;28;20684;-71
2023/06/14 18:15:46;;;;;;;3.57;2.50;;;24.30;48.90;;;;;;10226148;28;20211;-72
2023/06/14 18:20:46;;;;;;;2.97;2.63;;;24.20;49.50;;;;;;10226273;28;20225;-73
2023/06/14 18:25:47;;;;;;;2.70;2.40;;;24.00;50.50;;;;;;10234578;28;20241;-72
2023/06/14 18:30:47;;;;;;;4.53;2.23;;;23.90;50.70;;;;;;10224907;28;20243;-70
2023/06/14 18:35:48;;;;;;;2.40;2.20;;;23.70;49.90;;;;;;10216827;28;20222;-71
2023/06/14 18:40:51;;;;;;;2.60;2.40;;;23.60;50.30;;;;;;10224039;28;20225;-71
2023/06/14 18:45:52;;;;;;;3.63;2.40;;;23.40;50.90;;;;;;10220869;28;20261;-70
2023/06/14 18:50:52;;;;;;;4.37;2.20;;;23.30;51.70;;;;;;10223937;28;20850;-71
2023/06/14 18:55:53;;;;;;;6.13;2.30;;;23.10;52.20;;;;;;10220779;28;20324;-71
2023/06/14 19:00:54;;;;;;;6.73;2.57;;;23.00;52.80;;;;;;10227017;28;20223;-71
2023/06/14 19:05:57;;;;;;;2.23;2.00;;;22.90;53.20;;;;;;10233302;28;20318;-71
2023/06/14 19:10:58;;;;;;;3.60;2.57;;;22.70;53.70;;;;;;10226108;28;20225;-71
2023/06/14 19:15:58;;;;;;;4.53;2.70;;;22.60;54.20;;;;;;10228637;28;20221;-72
2023/06/14 19:20:59;;;;;;;3.77;2.40;;;22.40;54.70;;;;;;10223536;28;20752;-72
2023/06/14 19:25:59;;;;;;;2.67;2.33;;;22.30;55.20;;;;;;10221634;28;20688;-72
2023/06/14 19:31:01;;;;;;;5.23;2.80;;;22.10;55.60;;;;;;10225200;28;20682;-71
2023/06/14 19:36:02;;;;;;;4.33;2.90;;;22.00;55.80;;;;;;10225831;28;20224;-71
2023/06/14 19:41:02;;;;;;;7.57;2.63;;;21.90;55.60;;;;;;10223393;28;20239;-71
2023/06/14 19:46:03;;;;;;;4.00;2.83;;;21.80;55.50;;;;;;10218383;28;20236;-72
2023/06/14 19:51:04;;;;;;;3.17;2.53;;;21.70;55.80;;;;;;10225533;28;20230;-72
2023/06/14 19:56:06;;;;;;;3.40;2.90;;;21.60;56.20;;;;;;10227672;28;20222;-72
2023/06/14 20:01:07;;;;;;;4.10;2.53;;;21.50;56.50;;;;;;10226107;28;20999;-71
2023/06/14 20:06:10;;;;;;;3.40;2.53;;;21.40;56.90;;;;;;10224235;28;20227;-71
2023/06/14 20:11:12;;;;;;;7.93;2.90;;;21.20;57.30;;;;;;10230326;28;20223;-71
2023/06/14 20:16:16;;;;;;;5.73;3.07;;;21.10;57.70;;;;;;10221658;28;20223;-72
2023/06/14 20:21:17;;;;;;;5.57;3.00;;;21.00;58.10;;;;;;10225789;28;20235;-71
2023/06/14 20:26:17;;;;;;;3.67;2.70;;;20.90;58.30;;;;;;10224980;28;20235;-71
2023/06/14 20:31:19;;;;;;;3.07;2.53;;;20.80;58.70;;;;;;10224702;28;20318;-71
2023/06/14 20:36:20;;;;;;;4.50;2.83;;;20.70;59.00;;;;;;10216763;28;20220;-72
2023/06/14 20:41:21;;;;;;;3.57;2.90;;;20.70;59.30;;;;;;10228943;28;20592;-71
2023/06/14 20:46:27;;;;;;;6.00;2.57;;;20.60;59.70;;;;;;10216428;28;20232;-72
2023/06/14 20:51:28;;;;;;;4.80;2.97;;;20.50;60.00;;;;;;10222740;28;20219;-71
2023/06/14 20:56:28;;;;;;;6.73;2.80;;;20.30;60.20;;;;;;10229168;28;20257;-71
2023/06/14 21:01:34;;;;;;;8.07;2.73;;;20.20;60.70;;;;;;10224561;28;20588;-71
2023/06/14 21:06:38;;;;;;;3.97;2.80;;;20.20;61.20;;;;;;10222938;28;20308;-72
2023/06/14 21:11:38;;;;;;;5.67;2.97;;;20.10;61.50;;;;;;10223128;28;20218;-71
2023/06/14 21:16:42;;;;;;;4.63;3.03;;;20.00;61.80;;;;;;10227164;28;20230;-73
2023/06/14 21:21:42;;;;;;;5.87;2.40;;;20.00;62.40;;;;;;10221334;28;20238;-72
2023/06/14 21:26:43;;;;;;;5.80;2.97;;;19.90;62.70;;;;;;10213310;28;20724;-71
2023/06/14 21:31:44;;;;;;;4.67;2.83;;;19.80;62.90;;;;;;10217250;28;20223;-71
2023/06/14 21:36:45;;;;;;;6.17;3.33;;;19.70;63.60;;;;;;10222491;28;20206;-71
2023/06/14 21:41:46;;;;;;;3.83;2.83;;;19.60;64.10;;;;;;10221616;28;20317;-71
2023/06/14 21:46:46;;;;;;;2.57;2.37;;;19.50;64.60;;;;;;10225494;28;20803;-71
2023/06/14 21:51:47;;;;;;;5.63;2.83;;;19.40;65.20;;;;;;10219712;28;20314;-70
2023/06/14 21:56:47;;;;;;;3.07;2.80;;;19.30;65.80;;;;;;10222338;28;20230;-71
2023/06/14 22:01:48;;;;;;;4.47;2.90;;;19.20;66.50;;;;;;10225240;28;20232;-71
2023/06/14 22:06:48;;;;;;;3.70;2.60;;;19.10;66.90;;;;;;10218562;28;20656;-70
2023/06/14 22:11:49;;;;;;;5.60;2.83;;;19.10;67.20;;;;;;10225027;28;20234;-71
2023/06/14 22:16:51;;;;;;;4.87;2.97;;;19.00;67.70;;;;;;10222366;28;20227;-72
2023/06/14 22:21:51;;;;;;;4.23;2.87;;;18.90;67.90;;;;;;10228136;28;20690;-71
2023/06/14 22:26:56;;;;;;;6.30;2.77;;;18.80;68.50;;;;;;10218302;28;20251;-71
2023/06/14 22:31:56;;;;;;;4.73;3.13;;;18.70;69.00;;;;;;10221562;28;20282;-71
2023/06/14 22:37:03;;;;;;;3.50;2.53;;;18.60;69.60;;;;;;10236043;28;20257;-71
2023/06/14 22:42:06;;;;;;;3.77;2.80;;;18.50;70.00;;;;;;10220665;28;20246;-71
2023/06/14 22:47:08;;;;;;;4.00;2.60;;;18.40;70.50;;;;;;10216716;28;20228;-71
2023/06/14 22:52:13;;;;;;;6.10;3.80;;;18.30;70.90;;;;;;10228761;28;20227;-71
2023/06/14 22:57:16;;;;;;;4.50;3.00;;;18.30;71.10;;;;;;10234143;28;20229;-72
2023/06/14 23:02:18;;;;;;;6.07;2.73;;;18.20;71.30;;;;;;10226792;28;20374;-72
2023/06/14 23:07:26;;;;;;;4.37;3.40;;;18.10;71.50;;;;;;10220012;28;20234;-72
2023/06/14 23:12:30;;;;;;;10.40;4.57;;;18.10;72.00;;;;;;10220981;28;20224;-71
2023/06/14 23:17:31;;;;;;;9.07;4.50;;;18.10;72.00;;;;;;10232810;28;20239;-70
2023/06/14 23:22:35;;;;;;;3.57;2.70;;;18.10;72.20;;;;;;10226490;28;20232;-71
2023/06/14 23:27:37;;;;;;;4.27;2.77;;;18.00;72.30;;;;;;10232963;28;20211;-71
2023/06/14 23:32:39;;;;;;;3.20;2.77;;;17.80;72.80;;;;;;10223477;28;20219;-71
2023/06/14 23:37:41;;;;;;;5.50;2.83;;;17.80;72.80;;;;;;10222234;28;20239;-71
2023/06/14 23:42:41;;;;;;;3.33;2.80;;;17.80;72.90;;;;;;10223635;28;20301;-71
2023/06/14 23:47:42;;;;;;;4.93;2.67;;;17.70;73.10;;;;;;10229676;28;20270;-71
2023/06/14 23:52:44;;;;;;;3.50;2.63;;;17.70;73.30;;;;;;10227746;28;20247;-71
2023/06/14 23:57:44;;;;;;;5.07;2.90;;;17.70;73.20;;;;;;10232450;28;20223;-71
